createdAt,value
2017-12-16T00:01:19.694Z,2.20
2017-12-16T00:04:07.620Z,2.30
2017-12-16T00:06:37.287Z,2.30
2017-12-16T00:09:05.654Z,2.40
2017-12-16T00:11:34.018Z,2.40
2017-12-16T00:14:02.461Z,2.40
2017-12-16T00:16:30.865Z,2.50
2017-12-16T00:19:00.053Z,2.50
2017-12-16T00:21:29.526Z,2.50
2017-12-16T00:23:58.906Z,2.50
2017-12-16T00:26:27.402Z,2.50
2017-12-16T00:28:55.778Z,2.60
2017-12-16T00:31:24.330Z,2.50
2017-12-16T00:33:52.748Z,2.40
2017-12-16T00:36:21.112Z,2.30
2017-12-16T00:38:49.494Z,2.30
2017-12-16T00:41:17.870Z,2.40
2017-12-16T00:43:46.546Z,2.40
2017-12-16T00:46:14.851Z,2.50
2017-12-16T00:48:43.298Z,2.50
2017-12-16T00:51:11.676Z,2.30
2017-12-16T00:53:40.075Z,2.20
2017-12-16T00:56:08.461Z,2.10
2017-12-16T00:58:36.828Z,2.10
2017-12-16T01:01:05.422Z,2.00
2017-12-16T01:03:33.810Z,2.00
2017-12-16T01:06:02.206Z,1.90
2017-12-16T01:08:31.362Z,1.80
2017-12-16T01:11:00.142Z,1.80
2017-12-16T01:13:29.148Z,1.80
2017-12-16T01:15:57.602Z,1.80
2017-12-16T01:18:27.233Z,1.90
2017-12-16T01:20:55.653Z,1.90
2017-12-16T01:23:24.793Z,2.10
2017-12-16T01:25:53.681Z,2.10
2017-12-16T01:28:22.059Z,2.20
2017-12-16T01:30:50.419Z,2.20
2017-12-16T01:33:18.810Z,2.30
2017-12-16T01:36:04.893Z,2.30
2017-12-16T01:38:37.881Z,2.30
2017-12-16T01:41:06.265Z,2.20
2017-12-16T01:43:34.705Z,2.00
2017-12-16T01:46:03.464Z,2.00
2017-12-16T01:48:31.833Z,2.00
2017-12-16T01:51:00.224Z,2.00
2017-12-16T01:53:28.586Z,2.00
2017-12-16T01:55:57.009Z,2.00
2017-12-16T01:58:25.373Z,2.10
2017-12-16T02:00:53.765Z,2.10
2017-12-16T02:03:22.165Z,2.10
2017-12-16T02:05:51.298Z,2.10
2017-12-16T02:08:20.073Z,2.10
2017-12-16T02:10:48.922Z,1.90
2017-12-16T02:13:18.059Z,1.80
2017-12-16T02:15:46.456Z,1.80
2017-12-16T02:18:15.261Z,1.80
2017-12-16T02:20:44.372Z,1.90
2017-12-16T02:23:13.212Z,1.90
2017-12-16T02:25:42.037Z,2.20
2017-12-16T02:28:10.434Z,2.20
2017-12-16T02:30:39.250Z,2.30
2017-12-16T02:33:07.854Z,2.20
2017-12-16T02:35:36.255Z,2.00
2017-12-16T02:38:04.641Z,1.90
2017-12-16T02:40:33.033Z,1.80
2017-12-16T02:43:01.407Z,1.70
2017-12-16T02:45:29.914Z,1.70
2017-12-16T02:47:59.162Z,1.80
2017-12-16T02:50:27.530Z,1.80
2017-12-16T02:52:55.966Z,1.60
2017-12-16T02:55:25.106Z,1.40
2017-12-16T02:57:53.534Z,1.40
2017-12-16T03:00:21.902Z,1.40
2017-12-16T03:02:50.261Z,1.30
2017-12-16T03:05:18.662Z,1.30
2017-12-16T03:07:47.030Z,1.40
2017-12-16T03:10:15.689Z,1.30
2017-12-16T03:12:44.067Z,1.40
2017-12-16T03:15:12.447Z,1.40
2017-12-16T03:17:40.841Z,1.50
2017-12-16T03:20:09.224Z,1.50
2017-12-16T03:22:37.717Z,1.60
2017-12-16T03:25:06.085Z,1.80
2017-12-16T03:27:34.454Z,1.70
2017-12-16T03:30:02.853Z,1.50
2017-12-16T03:32:31.235Z,1.60
2017-12-16T03:34:59.861Z,1.80
2017-12-16T03:37:28.228Z,1.90
2017-12-16T03:39:56.591Z,1.90
2017-12-16T03:42:25.799Z,2.10
2017-12-16T03:44:54.165Z,2.10
2017-12-16T03:47:23.501Z,2.10
2017-12-16T03:49:51.870Z,2.00
2017-12-16T03:52:20.275Z,2.00
2017-12-16T03:54:48.671Z,1.90
2017-12-16T03:57:17.050Z,1.90
2017-12-16T03:59:45.680Z,1.90
2017-12-16T04:02:14.058Z,1.90
2017-12-16T04:04:42.541Z,2.00
2017-12-16T04:07:10.935Z,2.00
2017-12-16T04:09:39.304Z,2.00
2017-12-16T04:12:07.746Z,1.90
2017-12-16T04:14:36.115Z,1.90
2017-12-16T04:17:04.496Z,2.00
2017-12-16T04:19:32.885Z,1.90
2017-12-16T04:22:01.266Z,2.00
2017-12-16T04:24:30.465Z,2.00
2017-12-16T04:26:59.603Z,2.00
2017-12-16T04:29:27.987Z,2.00
2017-12-16T04:31:56.378Z,2.10
2017-12-16T04:34:24.737Z,2.00
2017-12-16T04:36:53.134Z,1.90
2017-12-16T04:39:21.545Z,1.90
2017-12-16T04:41:49.925Z,1.90
2017-12-16T04:44:18.870Z,1.90
2017-12-16T04:46:47.691Z,2.00
2017-12-16T04:49:16.796Z,2.10
2017-12-16T04:51:45.571Z,2.00
2017-12-16T04:54:14.375Z,2.20
2017-12-16T04:56:43.210Z,2.30
2017-12-16T04:59:11.983Z,2.30
2017-12-16T05:01:40.943Z,2.30
2017-12-16T05:04:10.767Z,2.20
2017-12-16T05:06:40.415Z,1.90
2017-12-16T05:09:08.806Z,1.90
2017-12-16T05:11:37.181Z,1.90
2017-12-16T05:14:05.631Z,1.90
2017-12-16T05:16:34.002Z,1.90
2017-12-16T05:19:02.724Z,1.80
2017-12-16T05:21:31.088Z,1.90
2017-12-16T05:23:59.459Z,1.90
2017-12-16T05:26:27.878Z,2.00
2017-12-16T05:28:56.253Z,1.90
2017-12-16T05:31:24.918Z,1.90
2017-12-16T05:33:53.294Z,1.90
2017-12-16T05:36:21.666Z,1.80
2017-12-16T05:38:50.053Z,1.90
2017-12-16T05:41:18.419Z,1.90
2017-12-16T05:43:46.919Z,1.90
2017-12-16T05:46:15.319Z,1.90
2017-12-16T05:48:43.686Z,1.80
2017-12-16T05:51:12.849Z,1.80
2017-12-16T05:53:41.226Z,1.80
2017-12-16T05:56:10.020Z,1.80
2017-12-16T05:58:38.403Z,1.70
2017-12-16T06:01:06.774Z,1.80
2017-12-16T06:03:35.168Z,1.80
2017-12-16T06:06:03.548Z,1.80
2017-12-16T06:08:31.944Z,1.80
2017-12-16T06:11:00.314Z,1.80
2017-12-16T06:13:28.697Z,1.80
2017-12-16T06:15:57.092Z,1.70
2017-12-16T06:18:25.470Z,1.70
2017-12-16T06:20:54.217Z,1.90
2017-12-16T06:23:22.582Z,2.00
2017-12-16T06:25:50.969Z,2.00
2017-12-16T06:28:19.353Z,1.90
2017-12-16T06:30:47.722Z,1.90
2017-12-16T06:33:16.225Z,1.90
2017-12-16T06:35:44.603Z,1.90
2017-12-16T06:38:12.977Z,1.90
2017-12-16T06:40:41.374Z,2.00
2017-12-16T06:43:09.740Z,2.00
2017-12-16T06:45:38.253Z,1.90
2017-12-16T06:48:06.630Z,1.90
2017-12-16T06:50:35.009Z,1.90
2017-12-16T06:53:03.406Z,1.90
2017-12-16T06:55:32.649Z,1.80
2017-12-16T06:58:01.056Z,1.80
2017-12-16T07:00:29.437Z,1.90
2017-12-16T07:02:58.289Z,1.90
2017-12-16T07:05:26.705Z,1.90
2017-12-16T07:07:55.148Z,2.00
2017-12-16T07:10:23.626Z,1.90
2017-12-16T07:12:52.004Z,2.00
2017-12-16T07:15:20.385Z,2.00
2017-12-16T07:17:48.770Z,2.00
2017-12-16T07:20:17.158Z,2.00
2017-12-16T07:22:45.613Z,2.00
2017-12-16T07:25:13.997Z,2.00
2017-12-16T07:27:42.373Z,2.00
2017-12-16T07:30:10.758Z,2.00
2017-12-16T07:32:39.128Z,2.00
2017-12-16T07:35:07.626Z,1.90
2017-12-16T07:37:35.997Z,1.90
2017-12-16T07:40:04.360Z,1.90
2017-12-16T07:42:33.025Z,1.90
2017-12-16T07:45:02.172Z,1.90
2017-12-16T07:47:30.669Z,1.90
2017-12-16T07:49:59.932Z,1.80
2017-12-16T07:52:28.325Z,1.80
2017-12-16T07:54:56.730Z,1.80
2017-12-16T07:57:25.163Z,1.90
2017-12-16T07:59:53.656Z,1.90
2017-12-16T08:02:22.060Z,2.00
2017-12-16T08:04:50.442Z,2.00
2017-12-16T08:07:18.842Z,2.10
2017-12-16T08:09:47.257Z,2.30
2017-12-16T08:12:16.492Z,2.40
2017-12-16T08:14:44.851Z,2.40
2017-12-16T08:17:13.206Z,2.50
2017-12-16T08:19:41.603Z,2.50
2017-12-16T08:22:09.991Z,2.50
2017-12-16T08:24:38.386Z,2.50
2017-12-16T08:27:06.746Z,2.60
2017-12-16T08:29:35.141Z,2.90
2017-12-16T08:32:03.530Z,3.20
2017-12-16T08:34:31.937Z,3.80
2017-12-16T08:37:01.118Z,5.40
2017-12-16T08:39:30.268Z,5.80
2017-12-16T08:41:58.674Z,5.80
2017-12-16T08:44:27.054Z,5.70
2017-12-16T08:46:55.418Z,5.70
2017-12-16T08:49:23.849Z,5.10
2017-12-16T08:51:52.997Z,4.80
2017-12-16T08:54:21.387Z,4.80
2017-12-16T08:56:49.778Z,4.50
2017-12-16T08:59:18.165Z,4.30
2017-12-16T09:01:46.826Z,4.20
2017-12-16T09:04:15.229Z,4.00
2017-12-16T09:06:43.596Z,3.90
2017-12-16T09:09:11.980Z,3.70
2017-12-16T09:11:40.359Z,3.70
2017-12-16T09:14:08.766Z,3.70
2017-12-16T09:16:37.147Z,3.60
2017-12-16T09:19:05.534Z,3.60
2017-12-16T09:21:33.928Z,3.40
2017-12-16T09:24:02.290Z,3.40
2017-12-16T09:26:30.920Z,3.40
2017-12-16T09:28:59.297Z,3.30
2017-12-16T09:31:27.681Z,3.30
2017-12-16T09:33:56.268Z,3.20
2017-12-16T09:36:25.426Z,3.20
2017-12-16T09:38:53.914Z,3.20
2017-12-16T09:41:23.107Z,3.20
2017-12-16T09:43:51.530Z,3.20
2017-12-16T09:46:19.936Z,3.20
2017-12-16T09:48:49.070Z,3.10
2017-12-16T09:51:17.565Z,3.10
2017-12-16T09:53:46.066Z,3.00
2017-12-16T09:56:14.452Z,3.00
2017-12-16T09:58:42.992Z,3.00
2017-12-16T10:01:11.398Z,3.00
2017-12-16T10:03:40.263Z,3.10
2017-12-16T10:06:08.670Z,3.10
2017-12-16T10:08:37.115Z,3.10
2017-12-16T10:11:05.524Z,3.10
2017-12-16T10:13:33.906Z,3.10
2017-12-16T10:16:02.469Z,3.10
2017-12-16T10:18:31.160Z,3.10
2017-12-16T10:20:59.553Z,3.10
2017-12-16T10:23:27.973Z,3.20
2017-12-16T10:25:56.341Z,3.20
2017-12-16T10:28:25.771Z,3.40
2017-12-16T10:30:54.135Z,3.40
2017-12-16T10:33:22.523Z,3.50
2017-12-16T10:35:50.936Z,3.40
2017-12-16T10:38:19.348Z,3.30
2017-12-16T10:40:49.244Z,3.20
2017-12-16T10:43:35.834Z,3.20
2017-12-16T10:46:04.657Z,3.10
2017-12-16T10:48:33.056Z,3.00
2017-12-16T10:51:01.432Z,3.00
2017-12-16T10:53:29.846Z,3.00
2017-12-16T10:56:02.882Z,3.00
2017-12-16T10:58:31.814Z,3.10
2017-12-16T11:01:04.711Z,3.30
2017-12-16T11:03:34.484Z,3.30
2017-12-16T11:06:02.971Z,3.40
2017-12-16T11:08:34.414Z,3.40
2017-12-16T11:11:03.393Z,3.50
2017-12-16T11:13:32.131Z,3.50
2017-12-16T11:16:00.894Z,3.30
2017-12-16T11:18:29.363Z,3.30
2017-12-16T11:20:58.511Z,3.40
2017-12-16T11:23:27.115Z,3.50
2017-12-16T11:25:56.284Z,3.60
2017-12-16T11:28:24.680Z,3.50
2017-12-16T11:30:53.045Z,3.70
2017-12-16T11:33:21.489Z,3.60
2017-12-16T11:35:49.858Z,3.50
2017-12-16T11:38:18.253Z,3.50
2017-12-16T11:40:46.642Z,3.60
2017-12-16T11:43:15.117Z,3.60
2017-12-16T11:45:43.698Z,3.70
2017-12-16T11:48:12.069Z,3.70
2017-12-16T11:50:40.439Z,3.80
2017-12-16T11:53:08.836Z,3.70
2017-12-16T11:55:37.259Z,3.70
2017-12-16T11:58:05.822Z,3.70
2017-12-16T12:00:34.197Z,3.70
2017-12-16T12:03:02.623Z,3.70
2017-12-16T12:05:31.051Z,3.70
2017-12-16T12:07:59.429Z,3.60
2017-12-16T12:10:27.952Z,3.60
2017-12-16T12:12:56.311Z,3.50
2017-12-16T12:15:24.680Z,3.50
2017-12-16T12:17:53.065Z,3.50
2017-12-16T12:20:21.548Z,3.50
2017-12-16T12:22:49.965Z,3.50
2017-12-16T12:25:18.374Z,3.50
2017-12-16T12:27:46.758Z,3.50
2017-12-16T12:30:15.662Z,3.40
2017-12-16T12:32:44.414Z,3.50
2017-12-16T12:35:13.214Z,3.50
2017-12-16T12:37:41.587Z,3.50
2017-12-16T12:40:09.957Z,3.50
2017-12-16T12:42:38.463Z,3.50
2017-12-16T12:45:06.853Z,3.50
2017-12-16T12:47:35.346Z,3.50
2017-12-16T12:50:03.710Z,3.30
2017-12-16T12:52:32.210Z,3.20
2017-12-16T12:55:00.676Z,3.20
2017-12-16T12:57:29.137Z,3.20
2017-12-16T12:59:57.734Z,3.10
2017-12-16T13:02:26.130Z,3.10
2017-12-16T13:04:54.523Z,3.10
2017-12-16T13:07:23.720Z,2.80
2017-12-16T13:09:52.878Z,2.80
2017-12-16T13:12:21.573Z,2.80
2017-12-16T13:14:50.129Z,2.70
2017-12-16T13:17:18.625Z,2.80
2017-12-16T13:19:47.329Z,2.80
2017-12-16T13:22:15.738Z,2.70
2017-12-16T13:24:44.394Z,2.70
2017-12-16T13:27:12.770Z,2.70
2017-12-16T13:29:41.217Z,2.70
2017-12-16T13:32:09.741Z,2.70
2017-12-16T13:34:38.433Z,2.60
2017-12-16T13:37:06.959Z,2.60
2017-12-16T13:39:35.348Z,2.60
2017-12-16T13:42:03.730Z,2.70
2017-12-16T13:44:32.130Z,2.70
2017-12-16T13:47:00.492Z,2.60
2017-12-16T13:49:29.091Z,2.60
2017-12-16T13:51:57.530Z,2.50
2017-12-16T13:54:25.889Z,2.50
2017-12-16T13:56:54.309Z,2.50
2017-12-16T13:59:22.713Z,2.40
2017-12-16T14:01:51.812Z,2.30
2017-12-16T14:04:20.563Z,2.20
2017-12-16T14:06:49.282Z,2.10
2017-12-16T14:09:18.091Z,2.10
2017-12-16T14:11:47.148Z,2.00
2017-12-16T14:14:15.694Z,1.90
2017-12-16T14:16:44.170Z,1.90
2017-12-16T14:19:12.544Z,1.80
2017-12-16T14:21:40.942Z,1.80
2017-12-16T14:24:09.317Z,1.80
2017-12-16T14:26:38.120Z,1.80
2017-12-16T14:29:06.687Z,1.90
2017-12-16T14:31:35.082Z,1.90
2017-12-16T14:34:03.495Z,1.90
2017-12-16T14:36:31.976Z,1.80
2017-12-16T14:39:00.738Z,1.80
2017-12-16T14:41:29.116Z,1.80
2017-12-16T14:43:57.487Z,1.80
2017-12-16T14:46:25.874Z,1.70
2017-12-16T14:48:54.793Z,1.70
2017-12-16T14:51:23.313Z,1.70
2017-12-16T14:53:51.724Z,1.70
2017-12-16T14:56:20.124Z,1.70
2017-12-16T14:58:48.652Z,1.70
2017-12-16T15:01:17.056Z,1.70
2017-12-16T15:03:45.758Z,1.70
2017-12-16T15:06:14.300Z,1.60
2017-12-16T15:08:42.900Z,1.70
2017-12-16T15:11:11.520Z,1.80
2017-12-16T15:13:40.004Z,1.80
2017-12-16T15:16:08.936Z,1.80
2017-12-16T15:18:37.314Z,1.70
2017-12-16T15:21:06.559Z,1.60
2017-12-16T15:23:35.521Z,1.60
2017-12-16T15:26:03.966Z,1.70
2017-12-16T15:28:32.487Z,1.70
2017-12-16T15:31:01.030Z,1.70
2017-12-16T15:33:29.788Z,1.60
2017-12-16T15:35:59.361Z,1.60
2017-12-16T15:38:27.920Z,1.60
2017-12-16T15:40:57.056Z,1.60
2017-12-16T15:43:25.741Z,1.60
2017-12-16T15:45:55.054Z,1.60
2017-12-16T15:48:23.780Z,1.60
2017-12-16T15:50:52.555Z,1.50
2017-12-16T15:53:21.567Z,1.50
2017-12-16T15:55:51.071Z,1.50
2017-12-16T15:58:19.721Z,1.50
2017-12-16T16:00:48.253Z,1.50
2017-12-16T16:03:16.904Z,1.50
2017-12-16T16:05:45.902Z,1.50
2017-12-16T16:08:14.411Z,1.50
2017-12-16T16:10:42.851Z,1.40
2017-12-16T16:13:11.432Z,1.40
2017-12-16T16:15:40.651Z,1.40
2017-12-16T16:18:09.446Z,1.40
2017-12-16T16:20:38.649Z,1.50
2017-12-16T16:23:08.213Z,1.40
2017-12-16T16:25:36.885Z,1.40
2017-12-16T16:28:05.625Z,1.40
2017-12-16T16:30:34.248Z,1.40
2017-12-16T16:33:02.735Z,1.30
2017-12-16T16:35:31.175Z,1.40
2017-12-16T16:37:59.682Z,1.40
2017-12-16T16:40:28.123Z,1.30
2017-12-16T16:42:56.681Z,1.40
2017-12-16T16:45:25.285Z,1.30
2017-12-16T16:47:53.780Z,1.30
2017-12-16T16:50:22.414Z,1.30
2017-12-16T16:52:52.031Z,1.30
2017-12-16T16:55:21.410Z,1.30
2017-12-16T16:57:49.794Z,1.30
2017-12-16T17:00:18.441Z,1.30
2017-12-16T17:02:47.068Z,1.30
2017-12-16T17:05:15.618Z,1.20
2017-12-16T17:07:44.256Z,1.20
2017-12-16T17:10:12.663Z,1.20
2017-12-16T17:12:41.555Z,1.20
2017-12-16T17:15:10.926Z,1.20
2017-12-16T17:17:40.353Z,1.20
2017-12-16T17:20:09.174Z,1.20
2017-12-16T17:22:38.604Z,1.20
2017-12-16T17:25:07.394Z,1.20
2017-12-16T17:28:01.904Z,1.20
2017-12-16T17:33:16.387Z,1.30
2017-12-16T17:35:45.010Z,1.20
2017-12-16T17:38:14.058Z,1.20
2017-12-16T17:40:42.601Z,1.20
2017-12-16T17:43:11.264Z,1.20
2017-12-16T17:45:40.092Z,1.20
2017-12-16T17:48:08.817Z,1.20
2017-12-16T17:50:37.801Z,1.20
2017-12-16T17:53:06.772Z,1.10
2017-12-16T17:55:36.746Z,1.20
2017-12-16T17:58:05.523Z,1.10
2017-12-16T18:00:34.316Z,1.20
2017-12-16T18:03:03.259Z,1.20
2017-12-16T18:05:32.019Z,1.10
2017-12-16T18:08:01.422Z,1.20
2017-12-16T18:10:30.435Z,1.20
2017-12-16T18:12:59.937Z,1.20
2017-12-16T18:15:30.965Z,1.20
2017-12-16T18:18:08.947Z,1.20
2017-12-16T18:20:37.867Z,1.20
2017-12-16T18:23:06.916Z,1.20
2017-12-16T18:25:35.864Z,1.20
2017-12-16T18:28:04.757Z,1.20
2017-12-16T18:30:34.224Z,1.30
2017-12-16T18:33:03.216Z,1.30
2017-12-16T18:35:31.978Z,1.20
2017-12-16T18:38:00.601Z,1.30
2017-12-16T18:40:29.984Z,1.30
2017-12-16T18:42:58.729Z,1.30
2017-12-16T18:45:27.952Z,1.30
2017-12-16T18:47:56.624Z,1.30
2017-12-16T18:50:26.310Z,1.20
2017-12-16T18:52:55.166Z,1.20
2017-12-16T18:55:23.772Z,1.10
2017-12-16T18:57:52.502Z,1.00
2017-12-16T19:00:21.351Z,1.00
2017-12-16T19:02:51.243Z,0.90
2017-12-16T19:05:19.976Z,1.00
2017-12-16T19:07:48.730Z,1.10
2017-12-16T19:10:17.663Z,1.00
2017-12-16T19:12:46.215Z,1.00
2017-12-16T19:15:15.213Z,0.90
2017-12-16T19:17:44.416Z,0.90
2017-12-16T19:20:12.813Z,0.90
2017-12-16T19:22:42.200Z,0.90
2017-12-16T19:25:10.644Z,0.90
2017-12-16T19:27:39.156Z,0.90
2017-12-16T19:30:10.574Z,0.90
2017-12-16T19:32:40.088Z,0.90
2017-12-16T19:35:09.709Z,0.80
2017-12-16T19:37:38.860Z,0.80
2017-12-16T19:40:07.275Z,0.80
2017-12-16T19:42:36.219Z,0.80
2017-12-16T19:45:04.640Z,0.80
2017-12-16T19:47:33.040Z,0.80
2017-12-16T19:50:01.524Z,0.90
2017-12-16T19:52:30.145Z,0.90
2017-12-16T19:54:58.674Z,0.90
2017-12-16T19:57:27.116Z,0.90
2017-12-16T19:59:55.610Z,0.90
2017-12-16T20:02:24.040Z,0.90
2017-12-16T20:04:54.017Z,0.90
2017-12-16T20:07:23.747Z,0.90
2017-12-16T20:09:52.171Z,0.90
2017-12-16T20:12:21.289Z,0.80
2017-12-16T20:14:50.117Z,0.90
2017-12-16T20:17:18.682Z,0.90
2017-12-16T20:19:47.589Z,0.90
2017-12-16T20:22:16.661Z,0.90
2017-12-16T20:24:45.490Z,0.90
2017-12-16T20:27:15.078Z,0.90
2017-12-16T20:29:44.348Z,0.90
2017-12-16T20:32:14.053Z,0.80
2017-12-16T20:34:42.801Z,0.80
2017-12-16T20:37:11.409Z,0.80
2017-12-16T20:39:40.473Z,0.80
2017-12-16T20:42:09.593Z,0.70
2017-12-16T20:44:38.406Z,0.70
2017-12-16T20:47:08.164Z,0.70
2017-12-16T20:49:37.225Z,0.70
2017-12-16T20:52:06.610Z,0.70
2017-12-16T20:54:36.130Z,0.70
2017-12-16T20:57:04.936Z,0.60
2017-12-16T20:59:34.576Z,0.60
2017-12-16T21:02:03.995Z,0.60
2017-12-16T21:04:32.927Z,0.60
2017-12-16T21:07:03.261Z,0.50
2017-12-16T21:09:33.416Z,0.60
2017-12-16T21:12:02.671Z,0.60
2017-12-16T21:14:32.457Z,0.50
2017-12-16T21:17:01.894Z,0.50
2017-12-16T21:19:30.591Z,0.50
2017-12-16T21:21:59.412Z,0.60
2017-12-16T21:24:29.441Z,0.50
2017-12-16T21:26:59.159Z,0.60
2017-12-16T21:29:28.374Z,0.60
2017-12-16T21:31:58.344Z,0.50
2017-12-16T21:34:28.025Z,0.60
2017-12-16T21:36:59.488Z,0.60
2017-12-16T21:39:28.529Z,0.60
2017-12-16T21:41:57.249Z,0.60
2017-12-16T21:44:26.019Z,0.60
2017-12-16T21:46:55.870Z,0.60
2017-12-16T21:49:25.649Z,0.60
2017-12-16T21:54:29.522Z,0.70
2017-12-16T21:56:58.894Z,0.70
2017-12-16T21:59:27.608Z,0.80
2017-12-16T22:01:56.498Z,0.70
2017-12-16T22:04:24.987Z,0.80
2017-12-16T22:06:56.458Z,0.80
2017-12-16T22:09:26.204Z,0.80
2017-12-16T22:11:54.831Z,0.70
2017-12-16T22:14:23.248Z,0.80
2017-12-16T22:16:51.852Z,0.80
2017-12-16T22:19:21.321Z,0.80
2017-12-16T22:21:55.732Z,0.80
2017-12-16T22:24:24.175Z,0.80
2017-12-16T22:26:53.336Z,0.90
2017-12-16T22:29:21.806Z,0.90
2017-12-16T22:31:50.183Z,0.90
2017-12-16T22:34:18.610Z,0.80
2017-12-16T22:36:47.783Z,0.90
2017-12-16T22:39:16.231Z,0.90
2017-12-16T22:41:44.759Z,0.90
2017-12-16T22:44:13.920Z,1.00
2017-12-16T22:46:42.351Z,1.00
2017-12-16T22:49:11.687Z,0.90
2017-12-16T22:51:40.083Z,0.90
2017-12-16T22:54:08.489Z,0.90
2017-12-16T22:56:37.219Z,0.90
2017-12-16T22:59:05.658Z,0.90
2017-12-16T23:01:34.095Z,0.90
2017-12-16T23:04:02.606Z,0.90
2017-12-16T23:06:31.470Z,0.90
2017-12-16T23:08:59.843Z,1.00
2017-12-16T23:11:28.393Z,1.00
2017-12-16T23:13:56.848Z,1.00
2017-12-16T23:16:35.640Z,1.00
2017-12-16T23:19:04.021Z,1.00
2017-12-16T23:21:32.411Z,1.10
2017-12-16T23:24:00.860Z,1.10
2017-12-16T23:26:29.276Z,1.00
2017-12-16T23:28:58.163Z,1.10
2017-12-16T23:31:26.597Z,1.00
2017-12-16T23:33:54.974Z,1.00
2017-12-16T23:36:23.346Z,0.90
2017-12-16T23:38:51.787Z,0.80
2017-12-16T23:41:20.171Z,0.80
2017-12-16T23:43:49.193Z,0.80
2017-12-16T23:46:17.814Z,0.80
2017-12-16T23:48:46.210Z,0.80
2017-12-16T23:51:14.582Z,0.80
2017-12-16T23:53:42.984Z,0.80
2017-12-16T23:56:11.349Z,0.80
2017-12-16T23:58:39.718Z,0.80
